Time;durP1;ratioP1;P1;durP2;ratioP2;P2;SDS_P1;SDS_P2;PMS_P1;PMS_P2;Temp;Humidity;BMP_temperature;BMP_pressure;BME280_temperature;BME280_humidity;BME280_pressure;Samples;Min_cycle;Max_cycle;Signal;HPM_P1;HPM_P2
2021/03/18 05:02:32;;;;;;;28.25;15.93;;;1.80;99.90;;;;;;4981496;23;20242;-70
2021/03/18 05:05:00;;;;;;;39.33;18.42;;;1.80;99.90;;;;;;4882515;29;20220;-70
2021/03/18 05:07:29;;;;;;;34.25;20.77;;;1.80;99.90;;;;;;4893785;29;20743;-70
2021/03/18 05:09:56;;;;;;;32.28;19.13;;;1.70;99.90;;;;;;4900619;29;20687;-70
2021/03/18 05:12:23;;;;;;;40.58;19.23;;;1.70;99.90;;;;;;4906168;29;20227;-70
2021/03/18 05:14:49;;;;;;;44.30;20.08;;;1.70;99.90;;;;;;4900858;29;20274;-70
2021/03/18 05:17:17;;;;;;;38.67;22.13;;;1.70;99.90;;;;;;4910620;29;20214;-69
2021/03/18 05:19:44;;;;;;;50.90;19.73;;;1.70;99.90;;;;;;4919790;29;20298;-69
2021/03/18 05:22:11;;;;;;;54.40;20.63;;;1.60;99.90;;;;;;4917078;29;20226;-69
2021/03/18 05:24:40;;;;;;;70.60;21.83;;;1.60;99.90;;;;;;4919194;29;20556;-70
2021/03/18 05:27:07;;;;;;;36.70;19.45;;;1.60;99.90;;;;;;4903635;29;20222;-69
2021/03/18 05:29:33;;;;;;;60.10;21.13;;;1.60;99.90;;;;;;4899778;29;20203;-69
2021/03/18 05:31:59;;;;;;;58.55;21.10;;;1.60;99.90;;;;;;4888948;29;20235;-69
2021/03/18 05:34:26;;;;;;;58.33;19.42;;;1.60;99.90;;;;;;4881568;29;20239;-70
2021/03/18 05:36:53;;;;;;;41.90;19.08;;;1.60;99.90;;;;;;4898644;29;20287;-70
2021/03/18 05:39:19;;;;;;;48.80;19.85;;;1.50;99.90;;;;;;4900047;29;20207;-68
2021/03/18 05:41:46;;;;;;;41.10;16.70;;;1.50;99.90;;;;;;4901913;29;20227;-68
2021/03/18 05:44:12;;;;;;;84.45;20.85;;;1.50;99.90;;;;;;4900437;29;20294;-69
2021/03/18 05:46:40;;;;;;;50.20;19.65;;;1.40;99.90;;;;;;4895024;29;20677;-68
2021/03/18 05:49:08;;;;;;;53.63;18.58;;;1.40;99.90;;;;;;4881954;29;20212;-69
2021/03/18 05:51:37;;;;;;;48.63;18.77;;;1.40;99.90;;;;;;4895072;29;20219;-69
2021/03/18 05:54:05;;;;;;;55.95;19.50;;;1.40;99.90;;;;;;4900162;29;20666;-69
2021/03/18 05:56:32;;;;;;;46.97;20.02;;;1.40;99.90;;;;;;4903098;29;20207;-70
2021/03/18 05:59:00;;;;;;;46.03;20.08;;;1.40;99.90;;;;;;4897176;29;20275;-69
2021/03/18 06:01:26;;;;;;;29.48;17.75;;;1.40;99.90;;;;;;4894358;29;20326;-70
2021/03/18 06:03:52;;;;;;;31.95;17.13;;;1.40;99.90;;;;;;4912334;29;20213;-70
2021/03/18 06:06:20;;;;;;;49.35;19.60;;;1.40;99.90;;;;;;4910340;29;20215;-69
2021/03/18 06:08:47;;;;;;;39.33;18.27;;;1.40;99.90;;;;;;4910916;29;20207;-69
2021/03/18 06:11:14;;;;;;;55.63;21.98;;;1.40;99.90;;;;;;4922168;29;20239;-73
2021/03/18 06:13:41;;;;;;;31.58;16.33;;;1.40;99.90;;;;;;4911757;29;20326;-73
2021/03/18 06:16:08;;;;;;;31.38;16.50;;;1.40;99.90;;;;;;4894206;29;20204;-73
2021/03/18 06:18:36;;;;;;;33.00;17.15;;;1.40;99.90;;;;;;4914462;29;20207;-74
2021/03/18 06:21:03;;;;;;;30.75;16.40;;;1.40;99.90;;;;;;4917754;29;20234;-73
2021/03/18 06:23:31;;;;;;;37.38;15.60;;;1.40;99.90;;;;;;4908251;29;20208;-74
2021/03/18 06:25:58;;;;;;;36.22;14.80;;;1.40;99.90;;;;;;4919502;29;20262;-74
2021/03/18 06:28:27;;;;;;;27.33;15.50;;;1.40;99.90;;;;;;4925925;29;20240;-73
2021/03/18 06:31:02;;;;;;;30.08;15.50;;;1.30;99.90;;;;;;4919645;29;20228;-74
2021/03/18 06:33:30;;;;;;;30.80;13.30;;;1.30;99.90;;;;;;4906419;29;20231;-73
2021/03/18 06:35:56;;;;;;;30.75;15.77;;;1.30;99.90;;;;;;4905896;29;20204;-73
2021/03/18 06:38:27;;;;;;;22.40;15.40;;;1.30;99.90;;;;;;4905537;29;20211;-73
2021/03/18 06:40:53;;;;;;;24.60;14.30;;;1.30;99.90;;;;;;4915741;29;20230;-74
2021/03/18 06:43:36;;;;;;;21.60;15.10;;;1.30;99.90;;;;;;4923847;29;20206;-73
2021/03/18 06:46:14;;;;;;;29.55;15.10;;;1.30;99.90;;;;;;4923104;29;20305;-73
2021/03/18 06:48:40;;;;;;;33.70;14.02;;;1.40;99.90;;;;;;4885562;29;20226;-73
2021/03/18 06:51:20;;;;;;;20.85;12.60;;;1.30;99.90;;;;;;4907303;29;20230;-73
2021/03/18 06:53:46;;;;;;;32.78;14.27;;;1.30;99.90;;;;;;4900807;29;20231;-73
2021/03/18 06:56:32;;;;;;;30.55;11.50;;;1.30;99.90;;;;;;4926642;29;20218;-74
2021/03/18 06:59:00;;;;;;;26.33;12.73;;;1.30;99.90;;;;;;4888327;29;20215;-73
2021/03/18 07:01:28;;;;;;;20.85;11.55;;;1.40;99.90;;;;;;4886094;29;20307;-72
2021/03/18 07:04:05;;;;;;;20.15;10.70;;;1.40;99.90;;;;;;4888090;29;20204;-73
2021/03/18 07:06:32;;;;;;;22.08;10.45;;;1.40;99.90;;;;;;4887332;29;20203;-73
2021/03/18 07:09:06;;;;;;;16.73;8.40;;;1.50;99.90;;;;;;4888434;29;20220;-74
2021/03/18 07:11:37;;;;;;;14.75;9.68;;;1.40;99.90;;;;;;4885856;29;20311;-74
2021/03/18 07:14:05;;;;;;;13.88;8.50;;;1.40;99.90;;;;;;4901441;29;20259;-75
2021/03/18 07:16:42;;;;;;;19.45;8.82;;;1.50;99.90;;;;;;4911389;29;20231;-75
2021/03/18 07:19:10;;;;;;;14.57;8.23;;;1.60;99.90;;;;;;4904169;29;20207;-74
2021/03/18 07:21:37;;;;;;;15.35;8.50;;;1.60;99.90;;;;;;4903577;29;20235;-73
2021/03/18 07:24:10;;;;;;;15.77;7.38;;;1.60;99.90;;;;;;4913455;29;20564;-73
2021/03/18 07:26:38;;;;;;;13.77;8.45;;;1.70;99.90;;;;;;4916906;29;20211;-74
2021/03/18 07:29:16;;;;;;;11.30;8.63;;;1.80;99.90;;;;;;4910340;29;20617;-74
2021/03/18 07:31:43;;;;;;;12.35;7.95;;;1.80;99.90;;;;;;4899458;29;20258;-74
2021/03/18 07:34:10;;;;;;;15.50;8.38;;;1.90;99.90;;;;;;4923147;29;20241;-73
2021/03/18 07:36:37;;;;;;;10.27;7.20;;;1.90;99.90;;;;;;4916271;29;20301;-74
2021/03/18 07:39:04;;;;;;;9.25;7.80;;;1.90;99.90;;;;;;4903941;29;20219;-74
2021/03/18 07:41:32;;;;;;;12.45;7.35;;;1.90;99.90;;;;;;4910658;29;20219;-73
2021/03/18 07:43:59;;;;;;;10.52;7.28;;;2.00;99.90;;;;;;4906357;29;20227;-73
2021/03/18 07:46:27;;;;;;;10.30;7.25;;;2.00;99.90;;;;;;4891032;29;20219;-73
2021/03/18 07:48:57;;;;;;;14.73;7.82;;;2.00;99.90;;;;;;4886592;29;20238;-73
2021/03/18 07:51:25;;;;;;;9.90;7.20;;;2.00;99.90;;;;;;4888645;29;20735;-73
2021/03/18 07:53:54;;;;;;;9.40;6.82;;;2.00;99.90;;;;;;4891750;29;20235;-74
2021/03/18 07:56:21;;;;;;;14.02;7.72;;;2.00;99.90;;;;;;4898712;29;20203;-74
2021/03/18 07:58:49;;;;;;;10.57;7.60;;;2.10;99.90;;;;;;4907137;29;20488;-74
2021/03/18 08:01:36;;;;;;;11.27;7.47;;;2.00;99.90;;;;;;4922691;29;20249;-74
2021/03/18 08:04:05;;;;;;;14.07;7.80;;;2.10;99.90;;;;;;4891681;29;20290;-74
2021/03/18 08:06:54;;;;;;;13.43;8.45;;;2.20;99.90;;;;;;4903976;29;20207;-73
2021/03/18 08:09:49;;;;;;;14.25;8.32;;;2.30;99.90;;;;;;4910667;29;20227;-74
2021/03/18 08:12:15;;;;;;;8.55;7.03;;;2.30;99.90;;;;;;4900981;29;20256;-74
2021/03/18 08:14:41;;;;;;;12.32;7.55;;;2.30;99.90;;;;;;4904763;29;20227;-74
2021/03/18 08:17:29;;;;;;;11.05;7.07;;;2.40;99.90;;;;;;4909920;29;20207;-74
2021/03/18 08:19:55;;;;;;;10.00;8.27;;;2.50;99.90;;;;;;4911832;29;20203;-74
2021/03/18 08:22:29;;;;;;;12.43;7.60;;;2.50;99.90;;;;;;4902617;29;20231;-74
2021/03/18 08:25:20;;;;;;;13.05;7.38;;;2.60;99.90;;;;;;4899130;29;20213;-74
2021/03/18 08:27:46;;;;;;;9.80;7.43;;;2.60;99.90;;;;;;4909056;29;20203;-75
2021/03/18 08:30:20;;;;;;;8.57;6.28;;;2.60;99.90;;;;;;4915438;29;20230;-75
2021/03/18 08:32:47;;;;;;;9.70;7.00;;;2.60;99.90;;;;;;4923442;29;20269;-74
2021/03/18 08:35:26;;;;;;;11.15;7.32;;;2.60;99.90;;;;;;4924871;29;20209;-75
2021/03/18 08:37:55;;;;;;;10.10;7.43;;;2.70;99.90;;;;;;4911689;29;20225;-74
2021/03/18 08:40:29;;;;;;;8.88;6.95;;;2.80;99.90;;;;;;4903316;29;20239;-75
2021/03/18 08:43:02;;;;;;;8.10;6.60;;;2.80;99.90;;;;;;4906087;29;20242;-75
2021/03/18 08:45:40;;;;;;;9.52;7.53;;;2.90;99.90;;;;;;4903140;29;20216;-74
2021/03/18 08:48:26;;;;;;;8.23;6.45;;;3.00;99.90;;;;;;4885783;29;20212;-75
2021/03/18 08:50:56;;;;;;;9.20;8.20;;;3.10;99.90;;;;;;4921963;29;20234;-75
2021/03/18 08:53:36;;;;;;;8.73;6.63;;;3.20;99.90;;;;;;4914228;29;20227;-75
2021/03/18 08:56:04;;;;;;;11.25;7.03;;;3.30;99.90;;;;;;4899628;29;20235;-75
2021/03/18 08:58:43;;;;;;;7.72;7.00;;;3.30;99.90;;;;;;4918233;29;20210;-74
2021/03/18 09:01:15;;;;;;;9.88;6.60;;;3.30;99.90;;;;;;4906277;29;20247;-74
2021/03/18 09:03:42;;;;;;;8.00;7.13;;;3.50;99.90;;;;;;4902302;29;20354;-74
2021/03/18 09:06:09;;;;;;;10.00;7.90;;;3.40;99.90;;;;;;4890298;29;20683;-74
2021/03/18 09:08:35;;;;;;;8.77;7.63;;;3.50;99.90;;;;;;4883370;29;20212;-76
2021/03/18 09:11:01;;;;;;;7.20;6.38;;;3.50;99.90;;;;;;4885069;29;20681;-75
2021/03/18 09:13:28;;;;;;;9.32;6.93;;;3.50;99.90;;;;;;4903621;29;20306;-74
2021/03/18 09:15:57;;;;;;;11.50;9.15;;;3.50;99.90;;;;;;4897570;29;20544;-74
2021/03/18 09:18:25;;;;;;;9.18;7.18;;;3.60;99.90;;;;;;4911824;29;20231;-73
2021/03/18 09:20:56;;;;;;;10.02;7.47;;;3.60;99.90;;;;;;4887082;29;20310;-73
2021/03/18 09:23:24;;;;;;;9.35;6.75;;;3.60;99.90;;;;;;4891155;29;20271;-74
2021/03/18 09:25:55;;;;;;;8.45;7.63;;;3.50;99.90;;;;;;4894929;29;20273;-73
2021/03/18 09:28:22;;;;;;;9.80;7.93;;;3.50;99.90;;;;;;4904209;29;20223;-73
2021/03/18 09:30:49;;;;;;;8.43;7.28;;;3.50;99.90;;;;;;4906451;29;20231;-73
2021/03/18 09:33:21;;;;;;;10.30;8.15;;;3.60;99.90;;;;;;4907587;29;20598;-74
2021/03/18 09:35:48;;;;;;;11.15;7.82;;;3.60;99.90;;;;;;4917354;29;20222;-73
2021/03/18 09:38:20;;;;;;;11.70;8.55;;;3.60;99.90;;;;;;4918019;29;20215;-75
2021/03/18 09:40:48;;;;;;;7.90;7.05;;;3.70;99.90;;;;;;4918619;29;20234;-73
2021/03/18 09:43:17;;;;;;;11.00;7.80;;;3.70;99.90;;;;;;4918995;29;20320;-75
2021/03/18 09:45:56;;;;;;;9.88;6.82;;;3.70;99.90;;;;;;4901187;29;20230;-74
2021/03/18 09:48:27;;;;;;;11.93;8.05;;;3.70;99.90;;;;;;4903646;29;20325;-74
2021/03/18 09:50:55;;;;;;;12.20;9.05;;;3.70;99.90;;;;;;4902728;29;20231;-74
2021/03/18 09:53:23;;;;;;;12.35;8.15;;;3.70;99.90;;;;;;4903328;29;20227;-75
2021/03/18 09:55:49;;;;;;;11.98;8.10;;;3.70;99.90;;;;;;4903083;29;20215;-74
2021/03/18 09:58:18;;;;;;;8.50;7.60;;;3.70;99.90;;;;;;4903041;29;20223;-74
2021/03/18 10:00:44;;;;;;;8.80;7.25;;;3.70;99.90;;;;;;4901682;29;20234;-74
2021/03/18 10:03:11;;;;;;;12.45;8.00;;;3.70;99.90;;;;;;4902645;29;20215;-74
2021/03/18 10:05:37;;;;;;;9.35;7.25;;;3.70;99.90;;;;;;4901451;29;20223;-73
2021/03/18 10:08:04;;;;;;;11.30;7.95;;;3.70;99.90;;;;;;4903244;29;20223;-74
2021/03/18 10:10:33;;;;;;;11.32;8.50;;;3.70;99.90;;;;;;4902199;29;20238;-74
2021/03/18 10:13:00;;;;;;;10.10;7.97;;;3.80;99.90;;;;;;4905283;29;20219;-74
2021/03/18 10:15:27;;;;;;;8.88;7.47;;;3.90;99.90;;;;;;4902614;29;20242;-73
2021/03/18 10:17:54;;;;;;;8.05;7.25;;;4.00;99.90;;;;;;4896939;29;20219;-76
2021/03/18 10:20:22;;;;;;;10.63;7.55;;;4.20;99.90;;;;;;4886003;29;20220;-74
2021/03/18 10:23:00;;;;;;;10.48;8.65;;;4.20;99.90;;;;;;4883215;29;20526;-75
2021/03/18 10:25:27;;;;;;;13.35;7.68;;;4.40;99.90;;;;;;4883458;29;20311;-73
2021/03/18 10:28:02;;;;;;;12.85;8.38;;;4.50;99.90;;;;;;4882146;29;20217;-73
2021/03/18 10:30:29;;;;;;;9.27;7.38;;;4.50;99.90;;;;;;4883387;29;20638;-74
2021/03/18 10:33:07;;;;;;;10.63;8.10;;;4.60;99.90;;;;;;4889908;29;20220;-75
2021/03/18 10:35:36;;;;;;;10.02;7.35;;;4.60;99.90;;;;;;4895962;29;20564;-73
2021/03/18 10:38:04;;;;;;;9.68;7.68;;;4.70;99.90;;;;;;4900578;29;20235;-75
2021/03/18 10:40:37;;;;;;;11.13;7.50;;;4.70;99.90;;;;;;4900489;29;20234;-75
2021/03/18 10:43:18;;;;;;;9.27;7.53;;;4.70;99.90;;;;;;4893718;29;20212;-75
2021/03/18 10:45:45;;;;;;;9.65;7.40;;;4.70;99.90;;;;;;4881820;29;20339;-74
2021/03/18 10:48:17;;;;;;;8.23;7.35;;;4.80;99.90;;;;;;4884055;29;20215;-74
2021/03/18 10:50:43;;;;;;;7.70;6.65;;;5.00;99.90;;;;;;4885879;29;20232;-72
2021/03/18 10:53:11;;;;;;;10.30;7.22;;;5.10;99.90;;;;;;4884151;29;20681;-74
2021/03/18 10:55:39;;;;;;;10.85;6.93;;;5.20;99.90;;;;;;4885791;29;20530;-75
2021/03/18 10:58:08;;;;;;;9.50;7.32;;;5.30;99.90;;;;;;4896025;29;20314;-74
2021/03/18 11:00:36;;;;;;;11.55;6.63;;;5.30;99.90;;;;;;4903568;29;20231;-74
2021/03/18 11:03:08;;;;;;;9.23;7.00;;;5.40;99.90;;;;;;4900069;29;20219;-74
2021/03/18 11:05:39;;;;;;;9.02;6.68;;;5.50;99.90;;;;;;4900168;29;20215;-74
2021/03/18 11:08:06;;;;;;;8.05;7.03;;;5.60;99.90;;;;;;4889516;29;20204;-74
2021/03/18 11:10:36;;;;;;;8.70;7.07;;;5.60;99.90;;;;;;4885671;29;20304;-70
2021/03/18 11:13:05;;;;;;;7.55;6.53;;;5.60;99.90;;;;;;4884566;29;20218;-72
2021/03/18 11:15:58;;;;;;;11.20;7.50;;;5.60;99.90;;;;;;4899936;29;20299;-69
2021/03/18 11:18:33;;;;;;;7.00;6.00;;;5.60;99.90;;;;;;4902722;29;20254;-70
2021/03/18 11:21:00;;;;;;;8.25;7.07;;;5.60;99.90;;;;;;4912009;29;20230;-75
2021/03/18 11:23:29;;;;;;;12.68;7.03;;;5.70;99.90;;;;;;4896989;29;20204;-74
2021/03/18 11:25:57;;;;;;;10.95;9.02;;;5.80;99.90;;;;;;4892141;29;20248;-71
2021/03/18 11:28:24;;;;;;;10.60;9.38;;;5.90;99.90;;;;;;4881323;29;20324;-72
2021/03/18 11:30:51;;;;;;;11.57;7.30;;;5.90;99.90;;;;;;4883975;29;20239;-71
2021/03/18 11:33:20;;;;;;;8.88;7.30;;;6.10;99.90;;;;;;4891851;29;20286;-71
2021/03/18 11:35:49;;;;;;;9.57;7.00;;;6.30;99.90;;;;;;4905474;29;20221;-71
2021/03/18 11:38:17;;;;;;;9.20;7.40;;;6.40;99.90;;;;;;4897932;29;20215;-71
2021/03/18 11:40:44;;;;;;;13.73;9.88;;;6.50;99.90;;;;;;4897701;29;20234;-70
2021/03/18 11:43:11;;;;;;;11.85;8.77;;;6.50;99.90;;;;;;4897474;29;20282;-70
2021/03/18 11:45:38;;;;;;;9.88;8.20;;;6.50;99.90;;;;;;4897939;29;20215;-71
2021/03/18 11:48:07;;;;;;;14.73;11.32;;;6.50;99.90;;;;;;4897630;29;20207;-71
2021/03/18 11:50:35;;;;;;;24.70;16.88;;;6.70;99.90;;;;;;4897552;29;20235;-71
2021/03/18 11:53:01;;;;;;;14.95;10.18;;;6.90;99.90;;;;;;4897649;29;20302;-72
2021/03/18 11:55:28;;;;;;;14.90;9.73;;;7.00;99.90;;;;;;4895528;29;20208;-72
2021/03/18 11:57:57;;;;;;;10.65;9.38;;;7.10;99.90;;;;;;4879528;29;20220;-71
2021/03/18 12:00:25;;;;;;;10.45;9.35;;;7.20;99.90;;;;;;4879645;29;20302;-73
2021/03/18 12:02:51;;;;;;;9.23;7.93;;;7.20;99.90;;;;;;4879211;29;20315;-71
2021/03/18 12:05:18;;;;;;;9.25;8.23;;;7.30;99.90;;;;;;4894412;29;20274;-72
2021/03/18 12:07:44;;;;;;;9.35;7.30;;;7.40;99.90;;;;;;4897225;29;20218;-72
2021/03/18 12:10:12;;;;;;;7.53;6.60;;;7.40;99.90;;;;;;4898069;29;20211;-72
2021/03/18 12:12:38;;;;;;;9.13;6.88;;;7.50;99.90;;;;;;4896614;29;20263;-72
2021/03/18 12:15:06;;;;;;;7.78;7.03;;;7.50;99.90;;;;;;4897784;29;20231;-69
2021/03/18 12:17:33;;;;;;;8.10;7.00;;;7.60;99.90;;;;;;4892329;29;20212;-65
2021/03/18 12:19:59;;;;;;;10.00;8.27;;;7.60;99.90;;;;;;4881071;29;20578;-64
2021/03/18 12:22:26;;;;;;;9.35;6.90;;;7.60;99.90;;;;;;4896096;29;20255;-70
2021/03/18 12:24:52;;;;;;;7.00;6.40;;;7.50;99.90;;;;;;4896662;29;20567;-69
2021/03/18 12:27:19;;;;;;;7.45;6.45;;;7.50;99.90;;;;;;4895339;29;20491;-68
2021/03/18 12:29:45;;;;;;;7.57;6.45;;;7.50;99.90;;;;;;4900990;29;20234;-69
2021/03/18 12:32:11;;;;;;;8.25;6.93;;;7.40;99.90;;;;;;4893243;29;20239;-71
2021/03/18 12:34:38;;;;;;;6.25;5.63;;;7.40;99.90;;;;;;4878978;29;20410;-71
2021/03/18 12:37:04;;;;;;;7.65;5.90;;;7.40;99.90;;;;;;4878944;29;20214;-71
2021/03/18 12:39:31;;;;;;;7.13;6.25;;;7.30;99.90;;;;;;4878540;29;20547;-70
2021/03/18 12:41:58;;;;;;;6.57;5.35;;;7.20;99.90;;;;;;4877768;29;20235;-72
2021/03/18 12:44:25;;;;;;;7.40;5.30;;;7.20;99.90;;;;;;4892329;29;20200;-72
2021/03/18 12:46:51;;;;;;;10.00;6.47;;;7.30;99.90;;;;;;4882039;29;20974;-72
2021/03/18 12:49:17;;;;;;;7.15;6.20;;;7.30;99.90;;;;;;4878449;29;20292;-72
2021/03/18 12:51:43;;;;;;;8.13;7.22;;;7.40;99.90;;;;;;4880280;29;20288;-72
2021/03/18 12:54:10;;;;;;;7.75;6.50;;;7.40;99.90;;;;;;4915889;29;20290;-71
2021/03/18 12:56:37;;;;;;;6.32;5.78;;;7.40;99.90;;;;;;4910575;29;20199;-72
2021/03/18 12:59:03;;;;;;;6.88;6.32;;;7.30;99.90;;;;;;4912928;29;20341;-72
2021/03/18 13:01:29;;;;;;;9.18;7.75;;;7.30;99.90;;;;;;4892461;29;20233;-72
2021/03/18 13:03:56;;;;;;;6.25;5.65;;;7.30;99.90;;;;;;4895311;29;20321;-71
2021/03/18 13:06:22;;;;;;;7.05;6.22;;;7.30;99.90;;;;;;4883927;29;20219;-70
2021/03/18 13:08:48;;;;;;;4.22;3.75;;;7.30;99.90;;;;;;4879196;29;20669;-70
2021/03/18 13:11:14;;;;;;;6.65;5.20;;;7.40;99.90;;;;;;4892609;29;20250;-71
2021/03/18 13:13:44;;;;;;;5.47;4.97;;;7.40;99.90;;;;;;4881107;29;20232;-71
2021/03/18 13:16:10;;;;;;;6.15;5.55;;;7.50;99.90;;;;;;4893870;29;20203;-71
2021/03/18 13:18:36;;;;;;;6.38;5.75;;;7.50;99.90;;;;;;4891496;29;20616;-71
2021/03/18 13:21:02;;;;;;;5.93;5.43;;;7.70;99.90;;;;;;4916580;29;20227;-71
2021/03/18 13:23:29;;;;;;;6.10;5.15;;;7.80;99.90;;;;;;4901776;29;20238;-71
2021/03/18 13:25:55;;;;;;;7.55;5.35;;;7.90;99.90;;;;;;4900718;29;20215;-71
2021/03/18 13:28:21;;;;;;;5.53;5.10;;;7.90;99.90;;;;;;4900627;29;20215;-71
2021/03/18 13:30:49;;;;;;;7.78;5.45;;;7.90;99.90;;;;;;4910920;29;20307;-71
2021/03/18 13:33:15;;;;;;;6.05;5.65;;;7.90;99.90;;;;;;4898299;29;20207;-70
2021/03/18 13:35:43;;;;;;;5.40;5.00;;;7.90;99.90;;;;;;4917747;29;20642;-69
2021/03/18 13:38:10;;;;;;;6.65;5.63;;;7.80;99.90;;;;;;4919195;29;20585;-69
2021/03/18 13:40:39;;;;;;;5.53;5.03;;;7.70;99.90;;;;;;4909894;29;20337;-69
2021/03/18 13:43:06;;;;;;;7.70;6.30;;;7.60;99.90;;;;;;4880775;29;20227;-70
2021/03/18 13:45:34;;;;;;;9.63;7.13;;;7.60;99.90;;;;;;4906359;29;20206;-70
2021/03/18 13:48:01;;;;;;;8.52;6.57;;;7.60;99.90;;;;;;4902366;29;20620;-69
2021/03/18 13:50:27;;;;;;;8.85;7.15;;;7.60;99.90;;;;;;4924112;29;20225;-73
2021/03/18 13:52:53;;;;;;;7.97;7.15;;;7.70;99.90;;;;;;4906824;29;20679;-73
2021/03/18 13:55:20;;;;;;;6.93;6.30;;;7.80;99.90;;;;;;4902629;29;20613;-73
2021/03/18 13:57:46;;;;;;;5.70;5.30;;;7.90;99.90;;;;;;4895271;29;20681;-74
2021/03/18 14:00:13;;;;;;;5.72;5.15;;;8.00;99.90;;;;;;4905681;29;20529;-73
2021/03/18 14:02:40;;;;;;;9.15;5.05;;;8.10;99.90;;;;;;4894516;29;20231;-73
2021/03/18 14:05:08;;;;;;;4.85;4.35;;;8.20;99.90;;;;;;4889347;29;20223;-73
2021/03/18 14:07:34;;;;;;;6.00;5.50;;;8.30;99.90;;;;;;4894077;29;20207;-73
2021/03/18 14:10:01;;;;;;;9.27;7.97;;;8.30;99.90;;;;;;4908157;29;20218;-74
2021/03/18 14:12:27;;;;;;;5.75;5.25;;;8.50;99.90;;;;;;4924652;29;20263;-75
2021/03/18 14:14:54;;;;;;;6.10;5.28;;;8.50;99.90;;;;;;4909360;29;20231;-74
2021/03/18 14:17:20;;;;;;;19.45;11.20;;;8.50;99.90;;;;;;4922878;29;20234;-74
2021/03/18 14:19:46;;;;;;;5.97;5.47;;;8.50;99.90;;;;;;4926174;29;20277;-74
2021/03/18 14:22:13;;;;;;;5.05;4.65;;;8.40;99.90;;;;;;4919593;29;20233;-71
2021/03/18 14:24:39;;;;;;;5.75;5.00;;;8.20;99.90;;;;;;4900123;29;20207;-72
2021/03/18 14:27:06;;;;;;;5.70;5.20;;;8.00;99.90;;;;;;4911742;29;20211;-72
2021/03/18 14:29:32;;;;;;;7.28;6.80;;;7.60;99.90;;;;;;4909614;29;20208;-72
2021/03/18 14:31:58;;;;;;;6.97;6.50;;;7.20;99.90;;;;;;4904315;29;20231;-71
2021/03/18 14:34:25;;;;;;;6.90;6.40;;;6.80;99.90;;;;;;4909311;29;20279;-71
2021/03/18 14:36:51;;;;;;;6.57;6.03;;;6.40;99.90;;;;;;4887536;29;20203;-71
2021/03/18 14:39:18;;;;;;;6.53;6.03;;;6.10;99.90;;;;;;4888053;29;20207;-71
2021/03/18 14:41:44;;;;;;;5.95;5.45;;;5.90;99.90;;;;;;4888940;29;20276;-71
2021/03/18 14:44:10;;;;;;;6.07;5.63;;;5.80;99.90;;;;;;4892785;29;20210;-71
2021/03/18 14:46:37;;;;;;;6.15;5.63;;;5.60;99.90;;;;;;4908997;29;20306;-71
2021/03/18 14:49:03;;;;;;;6.38;5.72;;;5.50;99.90;;;;;;4903718;29;20572;-70
2021/03/18 14:51:30;;;;;;;6.95;6.45;;;5.50;99.90;;;;;;4902495;29;20279;-70
2021/03/18 14:53:56;;;;;;;7.63;6.95;;;5.40;99.90;;;;;;4900746;29;20218;-70
2021/03/18 14:56:25;;;;;;;8.88;6.45;;;5.40;99.90;;;;;;4909168;29;20204;-70
2021/03/18 14:58:52;;;;;;;11.38;8.73;;;5.40;99.90;;;;;;4883418;29;20235;-70
2021/03/18 15:01:18;;;;;;;11.57;9.35;;;5.40;99.90;;;;;;4898904;29;20242;-70
2021/03/18 15:03:44;;;;;;;8.65;7.78;;;5.30;99.90;;;;;;4916021;29;20203;-70
2021/03/18 15:06:10;;;;;;;12.15;10.10;;;5.20;99.90;;;;;;4893058;29;20657;-72
2021/03/18 15:08:36;;;;;;;6.88;6.20;;;5.10;99.90;;;;;;4893024;29;20215;-70
2021/03/18 15:11:04;;;;;;;8.98;8.07;;;5.10;99.90;;;;;;4894902;29;20235;-70
2021/03/18 15:13:31;;;;;;;11.70;10.57;;;5.00;99.90;;;;;;4893143;29;20299;-70
2021/03/18 15:15:58;;;;;;;13.35;11.77;;;5.00;99.90;;;;;;4893128;29;20230;-69
2021/03/18 15:18:24;;;;;;;11.30;10.18;;;4.90;99.90;;;;;;4891846;29;20214;-70
2021/03/18 15:20:50;;;;;;;18.92;14.13;;;4.90;99.90;;;;;;4892248;29;20251;-70
2021/03/18 15:23:19;;;;;;;21.40;15.57;;;5.00;99.90;;;;;;4883585;29;20223;-71
2021/03/18 15:25:45;;;;;;;20.88;13.68;;;4.90;99.90;;;;;;4891914;29;20577;-71
2021/03/18 15:28:12;;;;;;;23.65;17.33;;;4.90;99.90;;;;;;4886877;29;20220;-71
2021/03/18 15:30:40;;;;;;;28.67;17.40;;;4.90;99.90;;;;;;4883868;29;20235;-72
2021/03/18 15:33:07;;;;;;;14.75;11.25;;;4.90;99.90;;;;;;4887992;29;20299;-72
2021/03/18 15:35:35;;;;;;;18.13;14.68;;;4.90;99.90;;;;;;4878762;29;20232;-72
2021/03/18 15:38:01;;;;;;;63.45;33.97;;;4.80;99.90;;;;;;4894469;29;20696;-71
2021/03/18 15:40:27;;;;;;;34.20;23.52;;;4.90;99.90;;;;;;4879750;29;20208;-71
2021/03/18 15:42:53;;;;;;;35.47;19.15;;;4.90;99.90;;;;;;4878507;29;20212;-71
2021/03/18 15:45:22;;;;;;;66.43;35.10;;;5.00;99.90;;;;;;4880482;29;20208;-72
2021/03/18 15:47:50;;;;;;;32.95;24.58;;;5.00;99.90;;;;;;4892588;29;20214;-71
2021/03/18 15:50:18;;;;;;;88.50;54.17;;;4.90;99.90;;;;;;4887813;29;20215;-71
2021/03/18 15:52:45;;;;;;;17.17;14.70;;;5.00;99.90;;;;;;4895658;29;20227;-72
2021/03/18 15:55:12;;;;;;;33.67;24.65;;;5.00;99.90;;;;;;4895782;29;20223;-71
2021/03/18 15:57:39;;;;;;;21.02;15.55;;;5.00;99.90;;;;;;4880444;29;20208;-71
2021/03/18 16:00:07;;;;;;;18.55;14.80;;;5.00;99.90;;;;;;4889437;29;20255;-71
2021/03/18 16:02:33;;;;;;;14.45;12.05;;;5.00;99.90;;;;;;4892480;29;20287;-71
2021/03/18 16:05:00;;;;;;;12.70;9.90;;;5.00;99.90;;;;;;4896636;29;20377;-72
2021/03/18 16:07:26;;;;;;;11.32;9.40;;;5.00;99.90;;;;;;4882840;29;20204;-71
2021/03/18 16:09:55;;;;;;;12.88;9.35;;;5.00;99.90;;;;;;4897752;29;20218;-72
2021/03/18 16:12:21;;;;;;;11.77;10.02;;;5.00;99.90;;;;;;4884189;29;20239;-71
2021/03/18 16:14:47;;;;;;;12.60;10.48;;;5.00;99.90;;;;;;4891308;29;20216;-72
2021/03/18 16:17:14;;;;;;;10.88;9.52;;;5.00;99.90;;;;;;4884836;29;20211;-71
2021/03/18 16:19:40;;;;;;;32.10;24.52;;;5.00;99.90;;;;;;4892951;29;20212;-72
2021/03/18 16:22:07;;;;;;;17.33;13.10;;;5.00;99.90;;;;;;4882963;29;20287;-71
2021/03/18 16:24:33;;;;;;;16.27;13.60;;;5.00;99.90;;;;;;4896716;29;20311;-71
2021/03/18 16:27:00;;;;;;;10.45;8.88;;;5.00;99.90;;;;;;4889544;29;20214;-72
2021/03/18 16:29:26;;;;;;;10.98;9.38;;;5.00;99.90;;;;;;4887658;29;20204;-71
2021/03/18 16:31:52;;;;;;;13.52;9.75;;;5.00;99.90;;;;;;4895395;29;20231;-72
2021/03/18 16:34:18;;;;;;;11.57;9.70;;;5.00;99.90;;;;;;4889165;29;20232;-71
2021/03/18 16:36:45;;;;;;;14.20;11.10;;;5.00;99.90;;;;;;4881636;29;20208;-72
2021/03/18 16:39:12;;;;;;;14.10;11.48;;;5.00;99.90;;;;;;4879026;29;20216;-72
2021/03/18 16:41:38;;;;;;;10.48;9.35;;;5.00;99.90;;;;;;4888263;29;20239;-72
2021/03/18 16:44:05;;;;;;;12.32;9.52;;;5.00;99.90;;;;;;4889289;29;20204;-71
2021/03/18 16:46:31;;;;;;;10.77;9.43;;;5.00;99.90;;;;;;4883368;29;20212;-71
2021/03/18 16:48:57;;;;;;;11.05;8.70;;;5.00;99.90;;;;;;4894411;29;20216;-72
2021/03/18 16:51:24;;;;;;;11.38;10.18;;;4.90;99.90;;;;;;4882192;29;20236;-71
2021/03/18 16:53:53;;;;;;;10.45;9.00;;;4.90;99.90;;;;;;4894649;29;20280;-72
2021/03/18 16:56:20;;;;;;;23.00;15.23;;;4.80;99.90;;;;;;4907240;29;20214;-72
2021/03/18 16:58:46;;;;;;;12.82;10.68;;;4.80;99.90;;;;;;4896111;29;20211;-72
2021/03/18 17:01:12;;;;;;;13.23;11.65;;;4.80;99.90;;;;;;4890304;29;20287;-72
2021/03/18 17:03:39;;;;;;;19.80;14.38;;;4.70;99.90;;;;;;4904934;29;20203;-72
2021/03/18 17:06:05;;;;;;;15.88;11.75;;;4.70;99.90;;;;;;4915661;29;20624;-73
2021/03/18 17:08:32;;;;;;;19.38;13.82;;;4.70;99.90;;;;;;4896062;29;20203;-73
2021/03/18 17:11:00;;;;;;;12.45;10.35;;;4.70;99.90;;;;;;4892322;29;20688;-73
2021/03/18 17:13:28;;;;;;;18.58;12.93;;;4.70;99.90;;;;;;4904351;29;20234;-73
2021/03/18 17:15:56;;;;;;;14.70;10.75;;;4.70;99.90;;;;;;4892962;29;20294;-72
2021/03/18 17:18:23;;;;;;;12.13;9.77;;;4.60;99.90;;;;;;4908290;29;20207;-72
2021/03/18 17:20:50;;;;;;;15.30;10.30;;;4.60;99.90;;;;;;4896150;29;20235;-72
2021/03/18 17:23:19;;;;;;;11.30;8.70;;;4.50;99.90;;;;;;4878539;29;20609;-73
2021/03/18 17:25:45;;;;;;;14.73;10.20;;;4.50;99.90;;;;;;4881252;29;20438;-73
2021/03/18 17:28:13;;;;;;;13.70;10.40;;;4.50;99.90;;;;;;4894000;29;20674;-73
2021/03/18 17:30:41;;;;;;;14.00;9.52;;;4.50;99.90;;;;;;4910776;29;20223;-73
2021/03/18 17:33:07;;;;;;;14.20;10.55;;;4.50;99.90;;;;;;4903586;29;20238;-72
2021/03/18 17:35:34;;;;;;;15.00;10.73;;;4.40;99.90;;;;;;4904526;29;20223;-73
2021/03/18 17:38:00;;;;;;;13.75;10.48;;;4.40;99.90;;;;;;4889222;29;20215;-73
2021/03/18 17:40:28;;;;;;;18.67;12.45;;;4.50;99.90;;;;;;4907005;29;20212;-73
2021/03/18 17:42:55;;;;;;;20.25;13.82;;;4.40;99.90;;;;;;4892422;29;20255;-73
2021/03/18 17:45:22;;;;;;;16.75;11.02;;;4.50;99.90;;;;;;4905005;29;20285;-73
2021/03/18 17:47:49;;;;;;;18.52;11.70;;;4.40;99.90;;;;;;4903877;29;20255;-73
2021/03/18 17:50:17;;;;;;;16.80;11.48;;;4.40;99.90;;;;;;4918578;29;20237;-72
2021/03/18 17:52:45;;;;;;;13.73;11.10;;;4.40;99.90;;;;;;4900567;29;20208;-73
2021/03/18 17:55:14;;;;;;;14.40;12.90;;;4.30;99.90;;;;;;4899867;29;20659;-72